Time;durP1;ratioP1;P1;durP2;ratioP2;P2;SDS_P1;SDS_P2;PMS_P1;PMS_P2;Temp;Humidity;BMP_temperature;BMP_pressure;BME280_temperature;BME280_humidity;BME280_pressure;Samples;Min_cycle;Max_cycle;Signal;HPM_P1;HPM_P2
2023/04/01 00:00:47;;;;;;;9.52;4.10;;;9.80;99.90;;;;;;5007755;28;20030;-85
2023/04/01 00:03:13;;;;;;;6.82;4.38;;;9.70;99.90;;;;;;5010157;28;20097;-85
2023/04/01 00:05:38;;;;;;;9.32;4.45;;;9.80;99.90;;;;;;5007293;28;20076;-84
2023/04/01 00:08:04;;;;;;;6.97;3.95;;;9.70;99.90;;;;;;5010826;28;20025;-85
2023/04/01 00:10:30;;;;;;;5.13;4.28;;;9.80;99.90;;;;;;5016322;28;20026;-85
2023/04/01 00:12:55;;;;;;;6.65;4.15;;;9.80;99.90;;;;;;5010282;28;20037;-84
2023/04/01 00:15:21;;;;;;;5.38;4.55;;;9.70;99.90;;;;;;5005255;28;20035;-84
2023/04/01 00:17:47;;;;;;;5.57;4.38;;;9.80;99.90;;;;;;4999292;28;20033;-84
2023/04/01 00:20:14;;;;;;;9.68;4.68;;;9.70;99.90;;;;;;4998549;28;20026;-85
2023/04/01 00:22:40;;;;;;;8.38;4.82;;;9.70;99.90;;;;;;5000746;28;20022;-84
2023/04/01 00:25:06;;;;;;;7.18;4.63;;;9.70;99.90;;;;;;5009575;28;20428;-85
2023/04/01 00:27:33;;;;;;;7.70;5.25;;;9.70;99.90;;;;;;5013693;28;20053;-84
2023/04/01 00:29:58;;;;;;;7.93;4.35;;;9.70;99.90;;;;;;5001128;28;20388;-84
2023/04/01 00:32:25;;;;;;;8.27;4.90;;;9.70;99.90;;;;;;5003298;28;20145;-85
2023/04/01 00:34:51;;;;;;;8.95;5.03;;;9.70;99.90;;;;;;5020755;28;20018;-85
2023/04/01 00:37:17;;;;;;;6.65;4.45;;;9.70;99.90;;;;;;4997503;28;20086;-86
2023/04/01 00:39:44;;;;;;;8.60;5.68;;;9.70;99.90;;;;;;5007142;28;20556;-85
2023/04/01 00:42:10;;;;;;;7.53;4.20;;;9.70;99.90;;;;;;5008019;28;20032;-85
2023/04/01 00:44:38;;;;;;;8.27;4.68;;;9.70;99.90;;;;;;5010368;28;20022;-85
2023/04/01 00:47:04;;;;;;;4.82;3.78;;;9.70;99.90;;;;;;5005743;28;20041;-85
2023/04/01 00:49:37;;;;;;;5.75;4.30;;;9.70;99.90;;;;;;5008503;28;20029;-85
2023/04/01 00:52:05;;;;;;;9.20;5.00;;;9.70;99.90;;;;;;5008527;28;20304;-85
2023/04/01 00:54:32;;;;;;;6.90;4.20;;;9.70;99.90;;;;;;4995665;28;20061;-85
2023/04/01 00:57:04;;;;;;;9.50;4.50;;;9.70;99.90;;;;;;4997187;28;20029;-85
2023/04/01 00:59:34;;;;;;;8.68;5.00;;;9.70;99.90;;;;;;5004880;28;20029;-84
2023/04/01 01:02:02;;;;;;;6.93;4.60;;;9.70;99.90;;;;;;5022916;28;20027;-85
2023/04/01 01:04:33;;;;;;;6.53;4.35;;;9.70;99.90;;;;;;5009109;28;20033;-86
2023/04/01 01:07:22;;;;;;;8.80;4.50;;;9.70;99.90;;;;;;5003312;28;20014;-85
2023/04/01 01:10:06;;;;;;;5.80;5.00;;;9.70;99.90;;;;;;5004058;28;20029;-84
2023/04/01 01:12:35;;;;;;;6.55;5.05;;;9.70;99.90;;;;;;5021374;28;20084;-85
2023/04/01 01:15:26;;;;;;;6.75;4.63;;;9.70;99.90;;;;;;5009370;28;20105;-85
2023/04/01 01:18:18;;;;;;;7.68;4.72;;;9.70;99.90;;;;;;5001318;28;20046;-85
2023/04/01 01:21:06;;;;;;;7.53;4.72;;;9.70;99.90;;;;;;4996865;28;20050;-86
2023/04/01 01:23:53;;;;;;;7.55;4.55;;;9.70;99.90;;;;;;5006353;28;20029;-85
2023/04/01 01:26:45;;;;;;;8.65;5.03;;;9.70;99.90;;;;;;5007318;28;20021;-86
2023/04/01 01:29:20;;;;;;;6.80;4.78;;;9.60;99.90;;;;;;4998684;28;20021;-85
2023/04/01 01:32:14;;;;;;;7.05;4.90;;;9.60;99.90;;;;;;5010161;28;20451;-86
2023/04/01 01:35:04;;;;;;;10.27;5.35;;;9.60;99.90;;;;;;5004494;28;20072;-85
2023/04/01 01:37:31;;;;;;;8.05;5.55;;;9.60;99.90;;;;;;4997168;28;20039;-85
2023/04/01 01:40:01;;;;;;;11.75;5.25;;;9.60;99.90;;;;;;5004309;28;20109;-85
2023/04/01 01:42:31;;;;;;;7.15;5.20;;;9.60;99.90;;;;;;5010649;28;20084;-86
2023/04/01 01:44:59;;;;;;;7.93;4.78;;;9.60;99.90;;;;;;5009735;28;20125;-85
2023/04/01 01:47:25;;;;;;;7.32;5.15;;;9.60;99.90;;;;;;5015837;28;20030;-85
2023/04/01 01:49:52;;;;;;;9.85;5.28;;;9.60;99.90;;;;;;5008526;28;20021;-85
2023/04/01 01:52:18;;;;;;;8.90;5.70;;;9.60;99.90;;;;;;4999886;28;20026;-85
2023/04/01 01:54:55;;;;;;;10.13;5.25;;;9.60;99.90;;;;;;5005078;28;20050;-86
2023/04/01 01:57:31;;;;;;;7.63;5.72;;;9.60;99.90;;;;;;4998211;28;20029;-86
2023/04/01 02:00:14;;;;;;;9.15;5.78;;;9.50;99.90;;;;;;5010977;28;20022;-86
2023/04/01 02:02:45;;;;;;;8.57;5.72;;;9.60;99.90;;;;;;5016259;28;20049;-86
2023/04/01 02:05:16;;;;;;;8.75;5.53;;;9.50;99.90;;;;;;4996826;28;20053;-85
2023/04/01 02:07:46;;;;;;;8.70;5.95;;;9.60;99.90;;;;;;5010660;28;20504;-85
2023/04/01 02:10:13;;;;;;;9.02;5.40;;;9.50;99.90;;;;;;5000958;28;20026;-86
2023/04/01 02:12:40;;;;;;;8.05;5.80;;;9.50;99.90;;;;;;5007891;28;20033;-85
2023/04/01 02:15:09;;;;;;;7.18;5.47;;;9.50;99.90;;;;;;5001451;28;20061;-85
2023/04/01 02:17:39;;;;;;;7.35;5.78;;;9.50;99.90;;;;;;4995508;28;20031;-85
2023/04/01 02:20:14;;;;;;;10.98;5.88;;;9.50;99.90;;;;;;5003658;28;20026;-86
2023/04/01 02:22:53;;;;;;;8.18;5.78;;;9.50;99.90;;;;;;5010165;28;20045;-86
2023/04/01 02:25:27;;;;;;;9.30;5.57;;;9.50;99.90;;;;;;5000186;28;20424;-85
2023/04/01 02:27:55;;;;;;;8.10;5.78;;;9.50;99.90;;;;;;5004736;28;20053;-86
2023/04/01 02:30:25;;;;;;;6.82;5.47;;;9.50;99.90;;;;;;5000724;28;20516;-85
2023/04/01 02:32:52;;;;;;;11.23;5.78;;;9.40;99.90;;;;;;5010613;28;20477;-86
2023/04/01 02:35:18;;;;;;;10.35;6.43;;;9.50;99.90;;;;;;5023969;28;20492;-85
2023/04/01 02:37:46;;;;;;;10.35;6.10;;;9.50;99.90;;;;;;4999478;28;20026;-86
2023/04/01 02:40:13;;;;;;;9.68;6.00;;;9.50;99.90;;;;;;5007036;28;20519;-85
2023/04/01 02:42:39;;;;;;;8.20;5.90;;;9.40;99.90;;;;;;5009822;28;20023;-85
2023/04/01 02:45:06;;;;;;;8.88;6.25;;;9.50;99.90;;;;;;5005743;28;20706;-85
2023/04/01 02:47:32;;;;;;;9.55;5.63;;;9.50;99.90;;;;;;5010392;28;20026;-85
2023/04/01 02:49:58;;;;;;;9.40;6.20;;;9.40;99.90;;;;;;5005736;28;20552;-86
2023/04/01 02:52:28;;;;;;;8.73;5.28;;;9.40;99.90;;;;;;5005975;28;20014;-86
2023/04/01 02:54:54;;;;;;;7.05;5.90;;;9.40;99.90;;;;;;4993189;28;20027;-86
2023/04/01 02:57:19;;;;;;;7.63;5.93;;;9.40;99.90;;;;;;4994045;28;20018;-86
2023/04/01 02:59:45;;;;;;;7.90;5.90;;;9.40;99.90;;;;;;4997372;28;20504;-86
2023/04/01 03:02:11;;;;;;;8.40;6.30;;;9.40;99.90;;;;;;5006471;28;20033;-85
2023/04/01 03:04:36;;;;;;;8.48;6.03;;;9.40;99.90;;;;;;5011470;28;20028;-86
2023/04/01 03:07:02;;;;;;;9.40;6.07;;;9.40;99.90;;;;;;5005707;28;20029;-86
2023/04/01 03:09:28;;;;;;;10.38;5.95;;;9.40;99.90;;;;;;4985641;28;20211;-86
2023/04/01 03:11:54;;;;;;;8.80;6.40;;;9.40;99.90;;;;;;5002298;28;20022;-85
2023/04/01 03:14:20;;;;;;;8.70;5.95;;;9.40;99.90;;;;;;5006026;28;20037;-86
2023/04/01 03:16:45;;;;;;;11.30;6.10;;;9.40;99.90;;;;;;5006781;28;20018;-85
2023/04/01 03:19:11;;;;;;;9.63;7.25;;;9.40;99.90;;;;;;5000023;28;20105;-86
2023/04/01 03:21:37;;;;;;;9.38;6.22;;;9.40;99.90;;;;;;5005701;28;20813;-86
2023/04/01 03:24:03;;;;;;;8.82;6.53;;;9.40;99.90;;;;;;5005451;28;20013;-85
2023/04/01 03:26:28;;;;;;;8.32;6.45;;;9.40;99.90;;;;;;4987278;28;20617;-85
2023/04/01 03:28:55;;;;;;;11.02;6.85;;;9.40;99.90;;;;;;5005150;28;20026;-85
2023/04/01 03:31:21;;;;;;;10.20;6.97;;;9.40;99.90;;;;;;5000466;28;20459;-85
2023/04/01 03:33:47;;;;;;;8.75;6.82;;;9.30;99.90;;;;;;5007268;28;20026;-85
2023/04/01 03:36:13;;;;;;;10.05;6.82;;;9.40;99.90;;;;;;5013190;28;20049;-86
2023/04/01 03:38:40;;;;;;;10.00;6.75;;;9.30;99.90;;;;;;5001797;28;20482;-85
2023/04/01 03:41:06;;;;;;;9.65;6.22;;;9.40;99.90;;;;;;5004461;28;20113;-85
2023/04/01 03:43:32;;;;;;;9.38;7.10;;;9.30;99.90;;;;;;5003780;28;20042;-86
2023/04/01 03:45:58;;;;;;;8.10;6.47;;;9.30;99.90;;;;;;5005643;28;20533;-86
2023/04/01 03:48:25;;;;;;;9.25;6.65;;;9.30;99.90;;;;;;5005941;28;20057;-86
2023/04/01 03:50:51;;;;;;;8.05;6.57;;;9.30;99.90;;;;;;4998921;28;20094;-85
2023/04/01 03:53:16;;;;;;;11.02;6.78;;;9.30;99.90;;;;;;5004630;28;20507;-86
2023/04/01 03:55:42;;;;;;;12.70;6.38;;;9.30;99.90;;;;;;5002376;28;20091;-85
2023/04/01 03:58:08;;;;;;;12.35;7.50;;;9.30;99.90;;;;;;4996922;28;20025;-86
2023/04/01 04:00:34;;;;;;;9.25;7.43;;;9.30;99.90;;;;;;5008168;28;20030;-86
2023/04/01 04:03:00;;;;;;;9.90;6.90;;;9.30;99.90;;;;;;5007657;28;20027;-86
2023/04/01 04:05:26;;;;;;;6.35;4.10;;;9.20;99.90;;;;;;5011093;28;20028;-84
2023/04/01 04:07:52;;;;;;;4.22;3.78;;;9.10;99.90;;;;;;5006536;28;20051;-85
2023/04/01 04:10:18;;;;;;;3.53;3.20;;;8.90;99.90;;;;;;5004588;28;20037;-85
2023/04/01 04:12:44;;;;;;;3.75;3.15;;;8.80;99.90;;;;;;5012027;28;20082;-85
2023/04/01 04:15:10;;;;;;;4.15;3.15;;;8.70;99.90;;;;;;5021816;28;20037;-85
2023/04/01 04:17:36;;;;;;;2.85;2.55;;;8.60;99.90;;;;;;5010346;28;20033;-84
2023/04/01 04:20:02;;;;;;;4.30;2.95;;;8.60;99.90;;;;;;5007133;28;20026;-84
2023/04/01 04:22:27;;;;;;;4.30;2.78;;;8.50;99.90;;;;;;5010972;28;20034;-84
2023/04/01 04:24:53;;;;;;;3.30;2.17;;;8.40;99.90;;;;;;5023977;28;20033;-84
2023/04/01 04:27:19;;;;;;;3.10;2.78;;;8.40;99.90;;;;;;5006986;28;20022;-84
2023/04/01 04:29:45;;;;;;;2.45;2.22;;;8.40;99.90;;;;;;5009910;28;20520;-84
2023/04/01 04:32:10;;;;;;;2.53;2.20;;;8.30;99.90;;;;;;5015276;28;20042;-85
2023/04/01 04:34:36;;;;;;;2.85;2.38;;;8.30;99.90;;;;;;5004704;28;20405;-84
2023/04/01 04:37:02;;;;;;;3.13;2.83;;;8.20;99.90;;;;;;4993985;28;20141;-84
2023/04/01 04:39:27;;;;;;;3.45;2.45;;;8.20;99.90;;;;;;5003066;28;20500;-85
2023/04/01 04:41:53;;;;;;;2.60;2.40;;;8.10;99.90;;;;;;5011578;28;20026;-84
2023/04/01 04:44:18;;;;;;;2.65;2.40;;;8.10;99.90;;;;;;4998318;28;20747;-85
2023/04/01 04:46:44;;;;;;;2.30;2.08;;;8.00;99.90;;;;;;5014121;28;20510;-84
2023/04/01 04:49:09;;;;;;;3.38;2.40;;;7.90;99.90;;;;;;5012968;28;20029;-82
2023/04/01 04:51:35;;;;;;;3.10;2.42;;;7.90;99.90;;;;;;4985669;28;20114;-84
2023/04/01 04:54:02;;;;;;;2.45;2.25;;;7.90;99.90;;;;;;5010984;28;20034;-83
2023/04/01 04:56:28;;;;;;;3.13;2.83;;;7.80;99.90;;;;;;5000556;28;20034;-83
2023/04/01 04:58:54;;;;;;;2.97;2.72;;;7.80;99.90;;;;;;5017808;28;20030;-84
2023/04/01 05:01:20;;;;;;;2.45;2.20;;;7.70;99.90;;;;;;4995031;28;20117;-85
2023/04/01 05:03:46;;;;;;;2.30;2.05;;;7.70;99.90;;;;;;5007770;28;20053;-86
2023/04/01 05:06:13;;;;;;;2.40;1.77;;;7.60;99.90;;;;;;5013593;28;20084;-84
2023/04/01 05:08:40;;;;;;;2.15;1.95;;;7.60;99.90;;;;;;5016547;28;20035;-82
2023/04/01 05:11:09;;;;;;;1.92;1.73;;;7.50;99.90;;;;;;5005323;28;20037;-84
2023/04/01 05:13:35;;;;;;;2.70;1.90;;;7.50;99.90;;;;;;5003677;28;20026;-83
2023/04/01 05:16:01;;;;;;;1.63;1.52;;;7.50;99.90;;;;;;5015688;28;20115;-84
2023/04/01 05:18:27;;;;;;;2.22;1.67;;;7.40;99.90;;;;;;5008090;28;20030;-84
2023/04/01 05:20:54;;;;;;;2.92;2.15;;;7.40;99.90;;;;;;5014518;28;20022;-85
2023/04/01 05:23:21;;;;;;;1.83;1.40;;;7.40;99.90;;;;;;5009443;28;20030;-84
2023/04/01 05:25:48;;;;;;;1.30;1.20;;;7.40;99.90;;;;;;5006119;28;20149;-84
2023/04/01 05:28:14;;;;;;;1.88;1.10;;;7.30;99.90;;;;;;5002031;28;20030;-83
2023/04/01 05:30:41;;;;;;;1.42;1.33;;;7.30;99.90;;;;;;5001742;28;20046;-83
2023/04/01 05:33:08;;;;;;;1.30;0.90;;;7.20;99.90;;;;;;5004109;28;20026;-82
2023/04/01 05:35:34;;;;;;;1.13;0.98;;;7.10;99.90;;;;;;4998984;28;20039;-84
2023/04/01 05:38:00;;;;;;;1.27;1.17;;;7.10;99.90;;;;;;5012331;28;20386;-84
2023/04/01 05:40:25;;;;;;;1.98;1.27;;;7.10;99.90;;;;;;4995602;28;20073;-83
2023/04/01 05:42:51;;;;;;;1.27;1.17;;;7.10;99.90;;;;;;5010254;28;20041;-84
2023/04/01 05:45:16;;;;;;;1.17;1.02;;;7.10;99.90;;;;;;5012762;28;20064;-84
2023/04/01 05:47:42;;;;;;;1.27;1.13;;;7.00;99.90;;;;;;5007635;28;20072;-83
2023/04/01 05:50:10;;;;;;;1.50;1.02;;;7.00;99.90;;;;;;5004409;28;20385;-83
2023/04/01 05:52:36;;;;;;;1.90;1.60;;;6.90;99.90;;;;;;5000842;28;20030;-82
2023/04/01 05:55:02;;;;;;;2.72;1.48;;;6.90;99.90;;;;;;5014857;28;20540;-83
2023/04/01 05:57:27;;;;;;;2.03;1.42;;;6.90;99.90;;;;;;5006383;28;20041;-82
2023/04/01 05:59:53;;;;;;;1.17;1.08;;;6.80;99.90;;;;;;5011324;28;20026;-84
2023/04/01 06:02:19;;;;;;;1.30;0.98;;;6.70;99.90;;;;;;5003825;28;20041;-83
2023/04/01 06:04:45;;;;;;;0.80;0.80;;;6.70;99.90;;;;;;5010308;28;20026;-84
2023/04/01 06:07:12;;;;;;;1.45;0.80;;;6.70;99.90;;;;;;5008269;28;20112;-83
2023/04/01 06:09:38;;;;;;;1.40;0.85;;;6.70;99.90;;;;;;4996095;28;20023;-84
2023/04/01 06:12:37;;;;;;;1.20;0.88;;;6.70;99.90;;;;;;5002109;28;20444;-83
2023/04/01 06:15:28;;;;;;;1.48;0.95;;;6.60;99.90;;;;;;5003926;28;20045;-82
2023/04/01 06:18:14;;;;;;;1.02;0.90;;;6.60;99.90;;;;;;5013771;28;20042;-83
2023/04/01 06:21:14;;;;;;;1.42;1.08;;;6.60;99.90;;;;;;5012808;28;20088;-84
2023/04/01 06:23:54;;;;;;;0.77;0.77;;;6.60;99.90;;;;;;5003088;28;20031;-82
2023/04/01 06:26:49;;;;;;;1.90;0.90;;;6.50;99.90;;;;;;4993612;28;20026;-84
2023/04/01 06:29:29;;;;;;;1.20;0.90;;;6.40;99.90;;;;;;4991715;28;20048;-83
2023/04/01 06:32:12;;;;;;;1.50;0.95;;;6.40;99.90;;;;;;5008823;28;20081;-82
2023/04/01 06:34:59;;;;;;;1.08;0.98;;;6.40;99.90;;;;;;5013735;28;20037;-83
2023/04/01 06:37:27;;;;;;;2.67;1.00;;;6.40;99.90;;;;;;5015950;28;20023;-82
2023/04/01 06:40:26;;;;;;;1.90;1.20;;;6.30;99.90;;;;;;5005446;28;20050;-84
2023/04/01 06:43:09;;;;;;;1.15;0.90;;;6.30;99.90;;;;;;5016564;28;20050;-83
2023/04/01 06:45:53;;;;;;;1.10;0.98;;;6.30;99.90;;;;;;5013663;28;20034;-82
2023/04/01 06:49:03;;;;;;;1.38;0.98;;;6.20;99.90;;;;;;5002396;28;20104;-84
2023/04/01 06:52:00;;;;;;;0.77;0.68;;;6.20;99.90;;;;;;5001873;28;20038;-82
2023/04/01 06:54:32;;;;;;;1.05;0.90;;;6.10;99.90;;;;;;5019704;28;20026;-83
2023/04/01 06:57:05;;;;;;;0.90;0.70;;;6.10;99.90;;;;;;4992348;28;20022;-82
2023/04/01 06:59:34;;;;;;;0.98;0.73;;;6.10;99.90;;;;;;4997104;28;20030;-82
2023/04/01 07:02:09;;;;;;;1.63;0.95;;;6.20;99.90;;;;;;5001434;28;20035;-84
2023/04/01 07:04:46;;;;;;;0.77;0.65;;;6.20;99.90;;;;;;5003821;28;20050;-84
2023/04/01 07:07:38;;;;;;;0.88;0.88;;;6.20;99.90;;;;;;4998440;28;20029;-83
2023/04/01 07:10:11;;;;;;;0.70;0.70;;;6.10;99.90;;;;;;5002056;28;20111;-84
2023/04/01 07:12:56;;;;;;;2.92;1.05;;;6.10;99.90;;;;;;5010876;28;20030;-84
2023/04/01 07:15:41;;;;;;;1.35;1.05;;;6.00;99.90;;;;;;4992618;28;20038;-84
2023/04/01 07:18:18;;;;;;;1.10;0.98;;;6.00;99.90;;;;;;5005855;28;20410;-83
2023/04/01 07:20:45;;;;;;;1.10;1.00;;;6.00;99.90;;;;;;4990302;28;20037;-85
2023/04/01 07:23:22;;;;;;;1.00;0.80;;;6.00;99.90;;;;;;5011053;28;20115;-84
2023/04/01 07:25:53;;;;;;;1.85;1.15;;;6.00;99.90;;;;;;4997583;28;20313;-83
2023/04/01 07:28:19;;;;;;;1.08;1.02;;;5.90;99.90;;;;;;5004888;28;20030;-84
2023/04/01 07:31:22;;;;;;;1.25;1.15;;;5.90;99.90;;;;;;4999165;28;20046;-84
2023/04/01 07:34:24;;;;;;;2.78;1.35;;;5.90;99.90;;;;;;5012641;28;20034;-83
2023/04/01 07:37:01;;;;;;;2.72;1.27;;;5.90;99.90;;;;;;5011916;28;20030;-83
2023/04/01 07:39:53;;;;;;;1.13;0.98;;;5.80;99.90;;;;;;5003301;28;20045;-84
2023/04/01 07:42:54;;;;;;;2.28;1.15;;;5.90;99.90;;;;;;4994862;28;20328;-85
2023/04/01 07:45:42;;;;;;;1.42;1.33;;;5.90;99.90;;;;;;4989927;28;20050;-82
2023/04/01 07:48:32;;;;;;;1.00;0.73;;;5.90;99.90;;;;;;5011185;28;20037;-83
2023/04/01 07:51:16;;;;;;;1.42;1.10;;;5.90;99.90;;;;;;4999231;28;20049;-83
2023/04/01 07:54:05;;;;;;;1.33;1.08;;;6.00;99.90;;;;;;5012014;28;20034;-85
2023/04/01 07:56:54;;;;;;;1.25;1.05;;;5.90;99.90;;;;;;5001847;28;20118;-84
2023/04/01 07:59:44;;;;;;;1.85;1.20;;;6.00;99.90;;;;;;5003397;28;20223;-83
2023/04/01 08:02:43;;;;;;;1.73;0.90;;;5.90;99.90;;;;;;4997669;28;20038;-83
2023/04/01 08:05:27;;;;;;;0.85;0.80;;;5.90;99.90;;;;;;4996766;28;20064;-82
2023/04/01 08:08:19;;;;;;;1.23;0.77;;;5.90;99.90;;;;;;4990480;28;20038;-83
2023/04/01 08:11:05;;;;;;;0.65;0.60;;;5.90;99.90;;;;;;5005930;28;20374;-82
2023/04/01 08:13:57;;;;;;;1.98;0.70;;;5.90;99.90;;;;;;4996129;28;20141;-83
2023/04/01 08:16:37;;;;;;;0.95;0.85;;;5.80;99.90;;;;;;4997888;28;20042;-82
2023/04/01 08:19:40;;;;;;;1.05;0.93;;;5.80;99.90;;;;;;4995877;28;20056;-82
2023/04/01 08:22:28;;;;;;;1.10;1.00;;;5.90;99.90;;;;;;4998836;28;20382;-82
2023/04/01 08:24:59;;;;;;;1.85;0.82;;;5.90;99.90;;;;;;4990127;28;20058;-83
2023/04/01 08:27:34;;;;;;;1.55;1.10;;;5.90;99.90;;;;;;5001218;28;20031;-84
2023/04/01 08:30:16;;;;;;;1.30;1.00;;;5.90;99.90;;;;;;5010916;28;20289;-84
2023/04/01 08:32:44;;;;;;;1.30;1.20;;;5.90;99.90;;;;;;5022634;28;20054;-83
2023/04/01 08:35:18;;;;;;;1.30;1.20;;;6.00;99.90;;;;;;5004822;28;20022;-82
2023/04/01 08:37:45;;;;;;;2.97;1.15;;;5.90;99.90;;;;;;5003624;28;20054;-84
2023/04/01 08:40:28;;;;;;;1.67;1.20;;;5.90;99.90;;;;;;5003249;28;20021;-84
2023/04/01 08:43:14;;;;;;;0.77;0.75;;;6.00;99.90;;;;;;5011972;28;20504;-84
2023/04/01 08:45:56;;;;;;;2.37;0.90;;;5.90;99.90;;;;;;5005038;28;20101;-83
2023/04/01 08:48:47;;;;;;;0.80;0.60;;;5.90;99.90;;;;;;5006305;28;20022;-83
2023/04/01 08:52:00;;;;;;;1.58;0.70;;;5.90;99.90;;;;;;5004170;28;20188;-82
2023/04/01 08:54:45;;;;;;;1.27;0.80;;;5.90;99.90;;;;;;5022597;28;20030;-84
2023/04/01 08:57:25;;;;;;;0.60;0.60;;;6.00;99.90;;;;;;5003524;28;20535;-82
2023/04/01 09:00:08;;;;;;;0.65;0.65;;;6.10;99.90;;;;;;5000157;28;20029;-84
2023/04/01 09:02:36;;;;;;;0.60;0.60;;;6.10;99.90;;;;;;4998155;28;20038;-82
2023/04/01 09:05:18;;;;;;;1.13;0.73;;;6.10;99.90;;;;;;4996614;28;20080;-84
2023/04/01 09:08:11;;;;;;;1.80;1.00;;;6.10;99.90;;;;;;5004884;28;20034;-83
2023/04/01 09:10:59;;;;;;;2.53;0.95;;;6.20;99.90;;;;;;5003213;28;20030;-82
2023/04/01 09:13:42;;;;;;;1.38;1.00;;;6.20;99.90;;;;;;4998403;28;20019;-83
2023/04/01 09:16:30;;;;;;;0.95;0.82;;;6.30;99.90;;;;;;5003509;28;20121;-82
2023/04/01 09:19:16;;;;;;;1.92;1.15;;;6.30;99.90;;;;;;5008562;28;20375;-82
2023/04/01 09:21:59;;;;;;;1.33;1.23;;;6.20;99.90;;;;;;5015258;28;20336;-84
2023/04/01 09:24:46;;;;;;;1.55;1.10;;;6.20;99.90;;;;;;5014800;28;20022;-83
2023/04/01 09:27:24;;;;;;;1.77;1.10;;;6.10;99.90;;;;;;4998645;28;20030;-85
2023/04/01 09:30:10;;;;;;;2.25;1.20;;;6.10;99.90;;;;;;5001560;28;20042;-82
2023/04/01 09:32:41;;;;;;;1.80;1.17;;;6.10;99.90;;;;;;5011551;28;20080;-83
2023/04/01 09:35:45;;;;;;;1.23;1.13;;;6.10;99.90;;;;;;5010742;28;20408;-83
2023/04/01 09:38:40;;;;;;;1.85;1.20;;;6.10;99.90;;;;;;5003062;28;20058;-83
2023/04/01 09:41:30;;;;;;;1.15;1.05;;;6.00;99.90;;;;;;5011371;28;20021;-83
2023/04/01 09:43:59;;;;;;;1.10;1.00;;;6.00;99.90;;;;;;5012307;28;20033;-83
2023/04/01 09:46:59;;;;;;;0.80;0.80;;;6.00;99.90;;;;;;5011465;28;20091;-82
2023/04/01 09:49:42;;;;;;;1.10;0.90;;;6.10;99.90;;;;;;5010180;28;20034;-82
2023/04/01 09:52:23;;;;;;;1.35;0.68;;;6.10;99.90;;;;;;5008862;28;20041;-82
2023/04/01 09:55:20;;;;;;;1.33;0.90;;;6.10;99.90;;;;;;5010047;28;20030;-83
2023/04/01 09:57:52;;;;;;;;;;;6.20;99.90;;;;;;4999805;28;20421;-83
2023/04/01 10:00:56;;;;;;;1.63;0.75;;;6.20;99.90;;;;;;5004269;28;19916;-84
2023/04/01 10:03:58;;;;;;;0.73;0.73;;;6.20;99.90;;;;;;5008131;28;20018;-82
2023/04/01 10:06:49;;;;;;;2.08;0.80;;;6.20;99.90;;;;;;4998109;28;20030;-83
2023/04/01 10:09:44;;;;;;;0.82;0.82;;;6.20;99.90;;;;;;4990043;28;20472;-84
2023/04/01 10:12:25;;;;;;;0.77;0.70;;;6.20;99.90;;;;;;4988192;28;20029;-83
2023/04/01 10:14:50;;;;;;;0.50;0.50;;;6.30;99.90;;;;;;4993427;28;20042;-84
2023/04/01 10:17:45;;;;;;;0.65;0.65;;;6.30;99.90;;;;;;5011545;28;20022;-83
2023/04/01 10:20:21;;;;;;;1.42;1.00;;;6.30;99.90;;;;;;5005857;28;20038;-81
2023/04/01 10:23:16;;;;;;;1.00;0.90;;;6.30;99.90;;;;;;5013601;28;20026;-83
2023/04/01 10:26:23;;;;;;;1.02;0.95;;;6.30;99.90;;;;;;5000447;28;20031;-83
2023/04/01 10:29:21;;;;;;;1.10;0.82;;;6.30;99.90;;;;;;5007930;28;20031;-84
2023/04/01 10:32:21;;;;;;;0.82;0.82;;;6.30;99.90;;;;;;5008913;28;20045;-83
2023/04/01 10:35:42;;;;;;;1.80;0.95;;;6.20;99.90;;;;;;5013163;28;20125;-83
2023/04/01 10:38:34;;;;;;;0.80;0.80;;;6.20;99.90;;;;;;5013300;28;20109;-83
2023/04/01 10:41:29;;;;;;;1.00;0.90;;;6.30;99.90;;;;;;5023973;28;20059;-84
2023/04/01 10:44:12;;;;;;;1.20;1.10;;;6.20;99.90;;;;;;5009608;28;20037;-82
2023/04/01 10:46:41;;;;;;;0.90;0.90;;;6.20;99.90;;;;;;5026251;28;20155;-83
2023/04/01 10:49:38;;;;;;;1.60;1.50;;;6.20;99.90;;;;;;5000576;28;20022;-84
2023/04/01 10:52:13;;;;;;;1.10;1.00;;;6.20;99.90;;;;;;5005139;28;20134;-84
2023/04/01 10:55:09;;;;;;;1.95;1.25;;;6.30;99.90;;;;;;5013366;28;20050;-84
2023/04/01 10:57:58;;;;;;;1.45;1.35;;;6.30;99.90;;;;;;5004877;28;20033;-83
2023/04/01 11:00:38;;;;;;;1.45;1.35;;;6.30;99.90;;;;;;5001321;28;21118;-83
2023/04/01 11:03:28;;;;;;;1.42;1.33;;;6.20;99.90;;;;;;5007373;28;20037;-85
2023/04/01 11:06:31;;;;;;;1.50;1.20;;;6.20;99.90;;;;;;5005398;28;20023;-85
2023/04/01 11:09:16;;;;;;;1.60;1.50;;;6.20;99.90;;;;;;4999077;28;20034;-82
2023/04/01 11:12:14;;;;;;;2.55;1.42;;;6.20;99.90;;;;;;5003515;28;20049;-83
2023/04/01 11:14:55;;;;;;;2.78;1.67;;;6.20;99.90;;;;;;4988931;28;20062;-84
2023/04/01 11:17:48;;;;;;;2.75;1.50;;;6.10;99.90;;;;;;5001277;28;20055;-85
2023/04/01 11:20:37;;;;;;;4.50;2.15;;;6.10;99.90;;;;;;5010290;28;20109;-84
2023/04/01 11:23:03;;;;;;;2.67;1.63;;;6.10;99.90;;;;;;5016748;28;20041;-85
2023/04/01 11:25:52;;;;;;;2.83;2.50;;;6.20;99.90;;;;;;5007981;28;20065;-84
2023/04/01 11:28:28;;;;;;;2.40;2.20;;;6.20;99.90;;;;;;5020002;28;20093;-84
2023/04/01 11:31:11;;;;;;;;;;;6.20;99.90;;;;;;5010253;28;20038;-86
2023/04/01 11:34:10;;;;;;;4.65;2.53;;;6.20;99.90;;;;;;5012067;28;19913;-84
2023/04/01 11:36:38;;;;;;;3.65;2.38;;;6.20;99.90;;;;;;5032120;28;20500;-85
2023/04/01 11:39:21;;;;;;;3.88;2.20;;;6.20;99.90;;;;;;4995731;28;20431;-84
2023/04/01 11:42:00;;;;;;;2.53;1.83;;;6.20;99.90;;;;;;4998868;28;20102;-83
2023/04/01 11:44:30;;;;;;;3.92;2.50;;;6.20;99.90;;;;;;4998709;28;20038;-83
2023/04/01 11:47:15;;;;;;;4.00;2.70;;;6.30;99.90;;;;;;5008285;28;20513;-82
2023/04/01 11:50:06;;;;;;;2.85;2.58;;;6.30;99.90;;;;;;4994483;28;20037;-84
2023/04/01 11:52:56;;;;;;;3.30;3.00;;;6.30;99.90;;;;;;5008680;28;20041;-83
2023/04/01 11:55:40;;;;;;;6.47;2.83;;;6.10;99.90;;;;;;4994130;28;20034;-84
2023/04/01 11:58:25;;;;;;;4.60;3.20;;;5.90;99.90;;;;;;4993219;28;20069;-85
2023/04/01 12:01:07;;;;;;;4.40;2.95;;;5.90;99.90;;;;;;5009053;28;20117;-84
2023/04/01 12:03:51;;;;;;;4.47;3.05;;;5.90;99.90;;;;;;4999966;28;20037;-85
2023/04/01 12:06:22;;;;;;;3.50;3.15;;;5.90;99.90;;;;;;5001737;28;20054;-83
2023/04/01 12:08:57;;;;;;;4.10;2.80;;;5.90;99.90;;;;;;5003676;28;20520;-85
2023/04/01 12:11:41;;;;;;;5.30;4.15;;;6.00;99.90;;;;;;5010411;28;20033;-84
2023/04/01 12:14:36;;;;;;;4.40;3.00;;;5.90;99.90;;;;;;4988847;28;20040;-85
2023/04/01 12:17:07;;;;;;;6.40;4.05;;;5.90;99.90;;;;;;5005758;28;20072;-85
2023/04/01 12:19:56;;;;;;;4.10;3.35;;;5.90;99.90;;;;;;4991879;28;20093;-87
2023/04/01 12:22:43;;;;;;;3.72;3.03;;;5.90;99.90;;;;;;5001284;28;20057;-84
2023/04/01 12:25:34;;;;;;;4.95;3.20;;;5.80;99.90;;;;;;5015751;28;20556;-84
2023/04/01 12:28:10;;;;;;;4.50;3.78;;;5.80;99.90;;;;;;5006390;28;20477;-85
2023/04/01 12:30:46;;;;;;;;;;;5.80;99.90;;;;;;4982096;28;20046;-84
2023/04/01 12:33:39;;;;;;;5.45;3.17;;;5.80;99.90;;;;;;5002524;28;20001;-84
2023/04/01 12:36:29;;;;;;;4.57;3.25;;;5.80;99.90;;;;;;5007300;28;20024;-84
2023/04/01 12:39:20;;;;;;;5.72;3.35;;;5.70;99.90;;;;;;5005267;28;20037;-83
2023/04/01 12:42:22;;;;;;;4.10;3.00;;;5.70;99.90;;;;;;5010312;28;20273;-85
2023/04/01 12:45:08;;;;;;;3.35;2.92;;;5.70;99.90;;;;;;5004712;28;20034;-87
2023/04/01 12:48:00;;;;;;;3.83;3.38;;;5.70;99.90;;;;;;4994431;28;20310;-84
2023/04/01 12:50:31;;;;;;;4.43;2.80;;;5.70;99.90;;;;;;5004044;28;20092;-84
2023/04/01 12:53:33;;;;;;;7.10;4.07;;;5.70;99.90;;;;;;5002789;28;20489;-85
2023/04/01 12:55:59;;;;;;;7.95;4.32;;;5.70;99.90;;;;;;5024856;28;20113;-85
2023/04/01 12:58:41;;;;;;;4.50;3.88;;;5.70;99.90;;;;;;5004258;28;20032;-85
2023/04/01 13:01:37;;;;;;;4.28;3.00;;;5.70;99.90;;;;;;4994987;28;20058;-84
2023/04/01 13:04:03;;;;;;;4.32;3.58;;;5.70;99.90;;;;;;4996906;28;20080;-84
2023/04/01 13:06:47;;;;;;;4.03;2.85;;;5.60;99.90;;;;;;4994554;28;20134;-85
2023/04/01 13:09:35;;;;;;;6.30;3.95;;;5.70;99.90;;;;;;4994171;28;20030;-87
2023/04/01 13:12:23;;;;;;;4.13;2.97;;;5.60;99.90;;;;;;4999426;28;20031;-84
2023/04/01 13:15:03;;;;;;;5.53;3.13;;;5.70;99.90;;;;;;4995322;28;20038;-83
2023/04/01 13:17:32;;;;;;;4.28;3.10;;;5.80;99.90;;;;;;5008444;28;20110;-85
2023/04/01 13:20:07;;;;;;;6.30;3.17;;;5.70;99.90;;;;;;5006414;28;20026;-86
2023/04/01 13:23:03;;;;;;;3.88;2.50;;;5.70;99.90;;;;;;5011180;28;20073;-86
2023/04/01 13:25:54;;;;;;;6.60;3.28;;;5.70;99.90;;;;;;4998294;28;20037;-87
2023/04/01 13:28:28;;;;;;;7.80;3.20;;;5.70;99.90;;;;;;5009808;28;20028;-87
2023/04/01 13:31:11;;;;;;;5.57;2.53;;;5.70;99.90;;;;;;4996880;28;20066;-86
2023/04/01 13:33:50;;;;;;;8.55;3.15;;;5.70;99.90;;;;;;5002807;28;20022;-89
2023/04/01 13:36:45;;;;;;;7.03;3.28;;;5.70;99.90;;;;;;4993953;28;20112;-87
2023/04/01 13:39:29;;;;;;;4.45;3.05;;;5.80;99.90;;;;;;5016749;28;20036;-87
2023/04/01 13:42:21;;;;;;;4.97;3.53;;;5.80;99.90;;;;;;5007664;28;20026;-85
2023/04/01 13:45:11;;;;;;;5.32;3.50;;;5.80;99.90;;;;;;5006253;28;20038;-88
2023/04/01 13:48:08;;;;;;;5.07;3.25;;;5.70;99.90;;;;;;5006905;28;20122;-85
2023/04/01 13:50:55;;;;;;;3.92;3.25;;;5.70;99.90;;;;;;5023418;28;20428;-85